Terminal Aerodrome Forecast
Issued by NWS

Home | Current Version | Previous Version | Text Only | Print | Product List | Glossary Off
Versions: 1 2 3 4 5 6 7 8 9 10 11 12 13 14 15

076
FTUS43 KUNR 270527
TAFGCC
TAF
KGCC 270527Z 2706/2806 15007KT P6SM BKN150
     FM270900 16008KT P6SM BKN010
     FM271100 15007KT P6SM BKN015
     FM271700 12008KT P6SM OVC015
     FM271800 10008KT P6SM -SHRA OVC015
     FM272300 02008KT 5SM -SHRA OVC010
     FM280100 01008KT P6SM -RA OVC008
     FM280200 36007KT 6SM -RASN OVC008
     FM280400 35006KT P6SM -SNRA OVC008=

USA.gov is the U.S. government's official web portal to all federal, state and local government web resources and services.